createdAt,value
2023-07-19T00:00:07.303Z,26.75
2023-07-19T00:03:03.943Z,22.20
2023-07-19T00:05:33.382Z,24.20
2023-07-19T00:08:03.242Z,24.00
2023-07-19T00:10:32.259Z,26.00
2023-07-19T00:13:01.094Z,25.80
2023-07-19T00:15:31.339Z,22.80
2023-07-19T00:18:00.782Z,21.80
2023-07-19T00:20:31.954Z,23.80
2023-07-19T00:23:00.670Z,21.80
2023-07-19T00:25:29.593Z,21.40
2023-07-19T00:27:58.160Z,25.00
2023-07-19T00:30:27.150Z,24.00
2023-07-19T00:32:55.925Z,26.00
2023-07-19T00:35:24.927Z,24.60
2023-07-19T00:37:54.857Z,17.40
2023-07-19T00:40:23.777Z,19.80
2023-07-19T00:42:57.883Z,18.50
2023-07-19T00:45:28.184Z,20.20
2023-07-19T00:47:59.291Z,21.00
2023-07-19T00:50:28.897Z,24.40
2023-07-19T00:52:59.207Z,21.80
2023-07-19T00:55:28.236Z,19.80
2023-07-19T00:57:56.955Z,19.60
2023-07-19T01:00:27.444Z,23.00
2023-07-19T01:02:56.215Z,21.60
2023-07-19T01:05:25.366Z,24.80
2023-07-19T01:07:56.205Z,21.60
2023-07-19T01:10:27.501Z,22.40
2023-07-19T01:13:05.926Z,24.40
2023-07-19T01:15:35.262Z,24.00
2023-07-19T01:18:04.122Z,25.20
2023-07-19T01:20:34.888Z,23.40
2023-07-19T01:23:05.615Z,19.60
2023-07-19T01:25:34.774Z,22.20
2023-07-19T01:28:03.445Z,23.40
2023-07-19T01:30:32.509Z,20.60
2023-07-19T01:33:01.552Z,21.00
2023-07-19T01:35:30.806Z,16.80
2023-07-19T01:37:59.756Z,20.40
2023-07-19T01:40:30.121Z,21.20
2023-07-19T01:42:58.787Z,20.80
2023-07-19T01:45:29.343Z,19.00
2023-07-19T01:47:58.061Z,19.60
2023-07-19T01:50:27.619Z,18.00
2023-07-19T01:52:56.287Z,17.40
2023-07-19T01:55:25.320Z,20.40
2023-07-19T01:57:55.429Z,19.00
2023-07-19T02:00:25.200Z,19.80
2023-07-19T02:02:54.974Z,18.40
2023-07-19T02:05:24.175Z,20.00
2023-07-19T02:07:52.813Z,18.20
2023-07-19T02:10:21.956Z,21.40
2023-07-19T02:12:51.092Z,18.20
2023-07-19T02:15:21.624Z,18.80
2023-07-19T02:17:50.361Z,23.00
2023-07-19T02:20:20.608Z,19.80
2023-07-19T02:22:49.452Z,17.20
2023-07-19T02:25:18.475Z,20.20
2023-07-19T02:27:47.103Z,17.60
2023-07-19T02:30:16.002Z,18.60
2023-07-19T02:32:46.089Z,21.40
2023-07-19T02:35:15.301Z,18.80
2023-07-19T02:37:44.145Z,20.60
2023-07-19T02:40:13.701Z,21.20
2023-07-19T02:42:42.364Z,20.40
2023-07-19T02:45:11.763Z,18.80
2023-07-19T02:47:40.323Z,21.60
2023-07-19T02:50:11.821Z,22.40
2023-07-19T02:52:40.507Z,20.00
2023-07-19T02:55:10.271Z,19.80
2023-07-19T02:57:38.951Z,20.60
2023-07-19T03:00:09.323Z,21.60
2023-07-19T03:02:38.068Z,21.20
2023-07-19T03:05:07.838Z,19.80
2023-07-19T03:07:38.203Z,27.00
2023-07-19T03:10:07.765Z,21.60
2023-07-19T03:12:36.386Z,21.80
2023-07-19T03:15:06.166Z,18.40
2023-07-19T03:17:35.160Z,20.60
2023-07-19T03:20:04.445Z,25.80
2023-07-19T03:22:33.389Z,21.20
2023-07-19T03:25:03.975Z,21.60
2023-07-19T03:27:32.736Z,18.60
2023-07-19T03:30:02.263Z,22.20
2023-07-19T03:32:32.787Z,23.60
2023-07-19T03:35:01.841Z,24.20
2023-07-19T03:37:31.295Z,22.20
2023-07-19T03:40:00.416Z,18.20
2023-07-19T03:42:30.502Z,25.00
2023-07-19T03:44:59.542Z,24.60
2023-07-19T03:47:28.241Z,29.00
2023-07-19T03:49:57.823Z,30.50
2023-07-19T03:52:26.503Z,28.00
2023-07-19T03:54:57.790Z,25.50
2023-07-19T03:57:32.791Z,25.60
2023-07-19T04:00:05.048Z,28.00
2023-07-19T04:02:46.011Z,27.80
2023-07-19T04:05:18.491Z,22.40
2023-07-19T04:07:47.266Z,29.00
2023-07-19T04:10:16.723Z,42.00
2023-07-19T04:12:47.655Z,25.20
2023-07-19T04:15:17.207Z,28.60
2023-07-19T04:17:46.919Z,27.80
2023-07-19T04:20:16.255Z,28.50
2023-07-19T04:22:45.194Z,26.20
2023-07-19T04:25:15.014Z,30.40
2023-07-19T04:27:43.965Z,28.50
2023-07-19T04:30:15.805Z,27.00
2023-07-19T04:32:45.073Z,30.80
2023-07-19T04:35:14.978Z,31.50
2023-07-19T04:37:43.987Z,28.00
2023-07-19T04:40:13.872Z,28.40
2023-07-19T04:42:43.302Z,27.25
2023-07-19T04:45:15.133Z,32.75
2023-07-19T04:47:45.361Z,29.75
2023-07-19T04:50:14.848Z,31.50
2023-07-19T04:52:46.563Z,70.75
2023-07-19T04:55:16.620Z,38.50
2023-07-19T04:57:45.646Z,31.50
2023-07-19T05:00:19.645Z,35.75
2023-07-19T05:02:48.993Z,33.25
2023-07-19T05:05:18.777Z,26.20
2023-07-19T05:07:50.016Z,31.25
2023-07-19T05:10:20.687Z,27.20
2023-07-19T05:12:50.088Z,26.40
2023-07-19T05:15:21.327Z,22.20
2023-07-19T05:17:50.603Z,27.20
2023-07-19T05:20:21.226Z,26.50
2023-07-19T05:22:50.812Z,8.40
2023-07-19T05:25:20.175Z,28.40
2023-07-19T05:27:49.219Z,30.40
2023-07-19T05:30:18.815Z,27.00
2023-07-19T05:32:50.154Z,24.20
2023-07-19T05:35:19.737Z,25.80
2023-07-19T05:37:48.647Z,27.00
2023-07-19T05:40:18.465Z,22.40
2023-07-19T05:42:47.879Z,25.00
2023-07-19T05:45:16.965Z,27.00
2023-07-19T05:47:45.629Z,29.00
2023-07-19T05:50:17.030Z,26.25
2023-07-19T05:52:45.792Z,25.50
2023-07-19T05:55:15.725Z,26.50
2023-07-19T05:57:44.343Z,25.50
2023-07-19T06:00:25.582Z,31.75
2023-07-19T06:02:55.842Z,25.50
2023-07-19T06:05:28.145Z,29.00
2023-07-19T06:08:04.010Z,24.00
2023-07-19T06:10:43.174Z,26.50
2023-07-19T06:13:15.206Z,23.50
2023-07-19T06:15:44.209Z,23.00
2023-07-19T06:18:12.976Z,23.80
2023-07-19T06:20:43.382Z,22.25
2023-07-19T06:23:12.051Z,10.25
2023-07-19T06:25:41.022Z,22.00
2023-07-19T06:28:09.780Z,21.40
2023-07-19T06:30:38.870Z,21.50
2023-07-19T06:33:07.532Z,49.75
2023-07-19T06:35:36.576Z,29.75
2023-07-19T06:38:07.103Z,28.50
2023-07-19T06:40:36.031Z,22.00
2023-07-19T06:43:07.428Z,20.40
2023-07-19T06:45:36.294Z,19.40
2023-07-19T06:48:05.248Z,22.80
2023-07-19T06:50:34.507Z,20.60
2023-07-19T06:53:03.328Z,17.80
2023-07-19T06:55:33.641Z,17.40
2023-07-19T06:58:02.319Z,19.40
2023-07-19T07:00:31.448Z,19.80
2023-07-19T07:03:00.162Z,20.40
2023-07-19T07:05:29.404Z,16.20
2023-07-19T07:07:57.950Z,20.20
2023-07-19T07:10:26.936Z,18.60
2023-07-19T07:12:57.041Z,20.80
2023-07-19T07:15:26.030Z,18.20
2023-07-19T07:17:54.820Z,18.00
2023-07-19T07:20:23.778Z,18.60
2023-07-19T07:22:54.195Z,14.80
2023-07-19T07:25:23.440Z,18.80
2023-07-19T07:27:52.118Z,16.80
2023-07-19T07:30:22.560Z,16.80
2023-07-19T07:32:51.189Z,18.00
2023-07-19T07:35:20.364Z,14.80
2023-07-19T07:37:49.022Z,12.80
2023-07-19T07:40:18.035Z,13.20
2023-07-19T07:42:46.601Z,18.00
2023-07-19T07:45:15.715Z,16.20
2023-07-19T07:47:45.828Z,15.00
2023-07-19T07:50:14.849Z,21.80
2023-07-19T07:52:44.169Z,17.80
2023-07-19T07:55:15.607Z,16.40
2023-07-19T07:57:44.504Z,13.80
2023-07-19T08:00:16.249Z,18.80
2023-07-19T08:02:46.415Z,22.20
2023-07-19T08:05:15.485Z,15.40
2023-07-19T08:07:44.215Z,16.20
2023-07-19T08:10:13.359Z,14.60
2023-07-19T08:12:42.061Z,18.60
2023-07-19T08:15:11.566Z,19.20
2023-07-19T08:17:40.408Z,21.00
2023-07-19T08:20:12.410Z,16.00
2023-07-19T08:22:41.707Z,15.60
2023-07-19T08:25:25.681Z,18.80
2023-07-19T08:27:56.384Z,18.40
2023-07-19T08:30:25.721Z,25.40
2023-07-19T08:32:54.727Z,17.00
2023-07-19T08:35:25.261Z,18.40
2023-07-19T08:37:54.011Z,20.40
2023-07-19T08:40:23.140Z,17.00
2023-07-19T08:42:53.020Z,19.60
2023-07-19T08:45:26.138Z,21.40
2023-07-19T08:47:55.440Z,15.40
2023-07-19T08:50:27.599Z,14.20
2023-07-19T08:53:02.360Z,17.80
2023-07-19T08:55:32.812Z,16.60
2023-07-19T08:58:01.884Z,11.80
2023-07-19T09:00:33.291Z,13.00
2023-07-19T09:03:02.035Z,13.00
2023-07-19T09:05:32.436Z,10.00
2023-07-19T09:08:02.234Z,12.00
2023-07-19T09:10:31.233Z,15.60
2023-07-19T09:12:59.851Z,18.80
2023-07-19T09:15:30.041Z,12.80
2023-07-19T09:17:58.803Z,13.00
2023-07-19T09:20:30.105Z,11.00
2023-07-19T09:23:00.190Z,12.80
2023-07-19T09:25:29.790Z,12.40
2023-07-19T09:27:58.379Z,7.00
2023-07-19T09:30:27.627Z,12.40
2023-07-19T09:33:02.361Z,9.00
2023-07-19T09:35:31.882Z,8.60
2023-07-19T09:38:02.110Z,14.40
2023-07-19T09:40:32.789Z,10.00
2023-07-19T09:43:02.748Z,11.00
2023-07-19T09:45:33.968Z,10.00
2023-07-19T09:48:05.734Z,12.40
2023-07-19T09:50:35.141Z,9.80
2023-07-19T09:53:05.546Z,16.00
2023-07-19T09:55:35.669Z,10.00
2023-07-19T09:58:07.327Z,7.80
2023-07-19T10:00:37.409Z,10.20
2023-07-19T10:03:08.229Z,7.80
2023-07-19T10:05:38.281Z,6.60
2023-07-19T10:08:12.678Z,3.20
2023-07-19T10:10:43.126Z,10.00
2023-07-19T10:13:14.951Z,6.80
2023-07-19T10:15:52.474Z,6.80
2023-07-19T10:18:22.286Z,9.40
2023-07-19T10:21:02.681Z,7.80
2023-07-19T10:23:32.806Z,6.40
2023-07-19T10:26:07.859Z,7.40
2023-07-19T10:28:36.603Z,7.60
2023-07-19T10:31:25.884Z,6.00
2023-07-19T10:33:57.252Z,5.60
2023-07-19T10:36:26.752Z,3.60
2023-07-19T10:38:57.155Z,7.40
2023-07-19T10:41:26.094Z,6.00
2023-07-19T10:44:01.502Z,6.80
2023-07-19T10:46:32.462Z,6.40
2023-07-19T10:49:01.243Z,6.20
2023-07-19T10:51:30.303Z,7.40
2023-07-19T10:54:00.804Z,4.20
2023-07-19T10:56:30.801Z,7.00
2023-07-19T10:59:00.905Z,4.20
2023-07-19T11:01:31.609Z,5.60
2023-07-19T11:04:05.932Z,3.80
2023-07-19T11:06:35.634Z,5.00
2023-07-19T11:09:10.501Z,3.60
2023-07-19T11:11:40.931Z,3.20
2023-07-19T11:14:09.736Z,7.40
2023-07-19T11:16:38.715Z,5.00
2023-07-19T11:19:07.358Z,5.80
2023-07-19T11:21:36.222Z,5.20
2023-07-19T11:24:06.603Z,5.00
2023-07-19T11:26:52.742Z,4.00
2023-07-19T11:29:21.849Z,4.20
2023-07-19T11:31:50.795Z,4.00
2023-07-19T11:34:19.451Z,4.00
2023-07-19T11:36:49.398Z,5.00
2023-07-19T11:39:18.283Z,3.40
2023-07-19T11:41:49.875Z,6.00
2023-07-19T11:44:20.568Z,4.80
2023-07-19T11:46:49.629Z,5.00
2023-07-19T11:49:19.179Z,4.20
2023-07-19T11:51:48.978Z,6.00
2023-07-19T11:54:17.511Z,6.80
2023-07-19T11:56:46.378Z,4.60
2023-07-19T11:59:16.426Z,4.20
2023-07-19T12:01:45.359Z,6.20
2023-07-19T12:04:14.002Z,5.40
2023-07-19T12:06:42.926Z,1.40
2023-07-19T12:09:14.202Z,8.80
2023-07-19T12:11:46.790Z,8.40
2023-07-19T12:14:18.153Z,4.40
2023-07-19T12:16:47.037Z,6.80
2023-07-19T12:19:16.462Z,5.80
2023-07-19T12:21:45.386Z,8.40
2023-07-19T12:24:14.037Z,7.40
2023-07-19T12:26:42.997Z,4.00
2023-07-19T12:29:12.452Z,6.60
2023-07-19T12:31:42.853Z,5.20
2023-07-19T12:34:11.399Z,5.00
2023-07-19T12:36:40.249Z,7.60
2023-07-19T12:39:08.818Z,4.60
2023-07-19T12:41:39.918Z,3.60
2023-07-19T12:44:09.194Z,5.00
2023-07-19T12:46:38.420Z,7.00
2023-07-19T12:49:08.347Z,4.50
2023-07-19T12:51:37.384Z,4.25
2023-07-19T12:54:06.306Z,3.75
2023-07-19T12:56:35.255Z,4.75
2023-07-19T12:59:04.309Z,4.00
2023-07-19T13:01:34.807Z,7.00
2023-07-19T13:04:03.778Z,5.25
2023-07-19T13:06:35.182Z,4.00
2023-07-19T13:09:05.508Z,4.00
2023-07-19T13:11:35.221Z,4.25
2023-07-19T13:14:04.893Z,4.50
2023-07-19T13:16:34.627Z,5.75
2023-07-19T13:19:03.253Z,5.75
2023-07-19T13:21:33.788Z,4.75
2023-07-19T13:24:02.493Z,5.75
2023-07-19T13:26:31.563Z,7.25
2023-07-19T13:29:01.429Z,5.00
2023-07-19T13:31:30.440Z,4.75
2023-07-19T13:33:59.324Z,4.75
2023-07-19T13:36:29.958Z,4.25
2023-07-19T13:39:01.032Z,5.00
2023-07-19T13:41:29.982Z,5.50
2023-07-19T13:43:58.684Z,5.75
2023-07-19T13:46:27.894Z,6.00
2023-07-19T13:48:56.654Z,4.75
2023-07-19T13:51:25.581Z,7.25
2023-07-19T13:53:54.564Z,7.50
2023-07-19T13:56:24.868Z,5.50
2023-07-19T13:58:53.446Z,7.25
2023-07-19T14:01:22.650Z,8.00
2023-07-19T14:03:52.093Z,6.50
2023-07-19T14:06:23.095Z,6.00
2023-07-19T14:08:52.257Z,6.50
2023-07-19T14:11:21.275Z,4.50
2023-07-19T14:16:23.691Z,12.50
2023-07-19T14:18:52.669Z,11.50
2023-07-19T14:21:21.631Z,7.50
2023-07-19T14:23:50.404Z,3.25
2023-07-19T14:26:19.741Z,6.00
2023-07-19T14:28:48.817Z,6.00
2023-07-19T14:31:22.597Z,5.50
2023-07-19T14:33:51.628Z,7.50
2023-07-19T14:36:22.995Z,6.50
2023-07-19T14:38:53.360Z,6.00
2023-07-19T14:41:22.463Z,4.50
2023-07-19T14:43:51.893Z,5.75
2023-07-19T14:46:24.457Z,9.75
2023-07-19T14:48:53.453Z,6.25
2023-07-19T14:51:22.380Z,7.50
2023-07-19T14:53:51.368Z,6.75
2023-07-19T14:56:21.342Z,37.75
2023-07-19T14:58:50.053Z,127.25
2023-07-19T15:01:22.287Z,13.75
2023-07-19T15:03:52.871Z,7.00
2023-07-19T15:06:23.539Z,7.20
2023-07-19T15:08:54.008Z,7.80
2023-07-19T15:11:23.772Z,8.75
2023-07-19T15:13:52.629Z,7.00
2023-07-19T15:16:23.404Z,5.75
2023-07-19T15:18:52.543Z,8.25
2023-07-19T15:21:22.303Z,10.75
2023-07-19T15:23:50.935Z,8.00
2023-07-19T15:26:33.389Z,8.00
2023-07-19T15:29:03.573Z,9.25
2023-07-19T15:31:34.754Z,10.50
2023-07-19T15:34:03.902Z,27.50
2023-07-19T15:36:32.824Z,8.25
2023-07-19T15:39:01.473Z,10.75
2023-07-19T15:41:30.474Z,6.40
2023-07-19T15:43:59.095Z,7.50
2023-07-19T15:46:28.336Z,12.50
2023-07-19T15:48:58.404Z,11.00
2023-07-19T15:51:27.277Z,14.00
2023-07-19T15:53:55.899Z,10.25
2023-07-19T15:56:25.064Z,10.50
2023-07-19T15:58:53.544Z,13.75
2023-07-19T16:01:22.803Z,12.00
2023-07-19T16:03:51.769Z,11.50
2023-07-19T16:06:22.137Z,15.50
2023-07-19T16:08:50.963Z,13.25
2023-07-19T16:11:20.146Z,10.00
2023-07-19T16:13:50.369Z,11.00
2023-07-19T16:16:19.348Z,13.25
2023-07-19T16:18:48.333Z,8.75
2023-07-19T16:21:17.250Z,11.75
2023-07-19T16:23:47.430Z,10.25
2023-07-19T16:26:16.417Z,11.75
2023-07-19T16:28:45.006Z,11.00
2023-07-19T16:31:14.373Z,15.75
2023-07-19T16:33:43.470Z,10.25
2023-07-19T16:36:12.619Z,9.75
2023-07-19T16:38:41.367Z,14.75
2023-07-19T16:41:11.709Z,11.00
2023-07-19T16:43:40.459Z,9.25
2023-07-19T16:46:09.681Z,11.25
2023-07-19T16:48:38.455Z,8.75
2023-07-19T16:51:07.499Z,9.00
2023-07-19T16:53:36.065Z,9.00
2023-07-19T16:56:05.039Z,8.75
2023-07-19T16:58:35.158Z,15.25
2023-07-19T17:01:04.162Z,12.00
2023-07-19T17:03:32.842Z,14.00
2023-07-19T17:06:01.873Z,19.75
2023-07-19T17:08:30.600Z,12.40
2023-07-19T17:11:00.371Z,10.50
2023-07-19T17:13:29.503Z,10.50
2023-07-19T17:16:01.009Z,12.00
2023-07-19T17:18:29.660Z,24.00
2023-07-19T17:20:58.682Z,22.00
2023-07-19T17:23:27.421Z,10.50
2023-07-19T17:25:56.446Z,11.00
2023-07-19T17:28:25.154Z,13.75
2023-07-19T17:30:57.079Z,11.25
2023-07-19T17:33:27.179Z,11.50
2023-07-19T17:35:56.297Z,10.25
2023-07-19T17:38:27.130Z,12.80
2023-07-19T17:40:57.380Z,36.50
2023-07-19T17:43:26.537Z,12.50
2023-07-19T17:45:55.509Z,29.75
2023-07-19T17:48:24.209Z,19.25
2023-07-19T17:50:54.842Z,11.20
2023-07-19T17:53:23.490Z,14.60
2023-07-19T17:55:52.500Z,24.50
2023-07-19T17:58:21.203Z,20.25
2023-07-19T18:00:50.870Z,50.75
2023-07-19T18:03:19.884Z,23.60
2023-07-19T18:05:48.983Z,16.20
2023-07-19T18:08:23.944Z,13.40
2023-07-19T18:10:54.693Z,6.40
2023-07-19T18:13:23.469Z,3.80
2023-07-19T18:15:52.430Z,4.60
2023-07-19T18:18:21.313Z,4.40
2023-07-19T18:20:52.722Z,3.40
2023-07-19T18:23:22.959Z,2.00
2023-07-19T18:25:51.927Z,1.20
2023-07-19T18:28:20.659Z,2.20
2023-07-19T18:30:49.833Z,1.00
2023-07-19T18:33:18.660Z,2.60
2023-07-19T18:35:47.782Z,2.80
2023-07-19T18:38:16.576Z,2.20
2023-07-19T18:40:47.199Z,3.20
2023-07-19T18:43:16.340Z,2.80
2023-07-19T18:46:05.427Z,5.00
2023-07-19T18:48:34.620Z,3.40
2023-07-19T18:51:04.189Z,5.20
2023-07-19T18:53:37.188Z,7.20
2023-07-19T18:56:11.115Z,5.00
2023-07-19T18:58:40.039Z,5.60
2023-07-19T19:01:09.299Z,4.80
2023-07-19T19:03:38.544Z,10.20
2023-07-19T19:10:14.893Z,6.20
2023-07-19T19:12:45.091Z,10.00
2023-07-19T19:15:14.190Z,6.00
2023-07-19T19:17:43.091Z,7.80
2023-07-19T19:20:12.717Z,9.80
2023-07-19T19:22:41.598Z,12.20
2023-07-19T19:25:11.658Z,16.60
2023-07-19T19:27:40.279Z,10.00
2023-07-19T19:30:11.346Z,8.40
2023-07-19T19:32:40.316Z,9.00
2023-07-19T19:35:14.102Z,8.80
2023-07-19T19:37:43.222Z,7.40
2023-07-19T19:40:13.297Z,10.40
2023-07-19T19:42:45.089Z,8.60
2023-07-19T19:45:15.456Z,9.00
2023-07-19T19:47:45.679Z,9.00
2023-07-19T19:50:15.408Z,5.40
2023-07-19T19:52:52.181Z,8.20
2023-07-19T19:55:48.943Z,8.20
2023-07-19T19:58:16.892Z,7.20
2023-07-19T20:00:47.868Z,8.80
2023-07-19T20:08:20.878Z,7.00
2023-07-19T20:13:21.522Z,6.60
2023-07-19T20:15:53.718Z,8.80
2023-07-19T20:18:23.154Z,8.40
2023-07-19T20:20:53.689Z,4.60
2023-07-19T20:23:22.415Z,6.40
2023-07-19T20:26:12.061Z,7.40
2023-07-19T20:28:39.979Z,6.40
2023-07-19T20:31:10.736Z,6.40
2023-07-19T20:33:42.423Z,8.00
2023-07-19T20:36:45.668Z,6.00
2023-07-19T20:39:01.205Z,8.80
2023-07-19T20:44:01.962Z,7.80
2023-07-19T20:46:34.686Z,6.00
2023-07-19T20:49:06.215Z,6.20
2023-07-19T20:51:35.832Z,9.20
2023-07-19T20:54:06.488Z,6.80
2023-07-19T20:56:37.030Z,7.80
2023-07-19T20:59:05.670Z,5.60
2023-07-19T21:01:38.080Z,6.00
2023-07-19T21:04:07.020Z,6.40
2023-07-19T21:06:37.325Z,6.60
2023-07-19T21:09:06.457Z,8.00
2023-07-19T21:11:35.420Z,6.60
2023-07-19T21:14:04.307Z,5.00
2023-07-19T21:16:33.238Z,7.40
2023-07-19T21:19:03.342Z,6.20
2023-07-19T21:21:32.304Z,6.00
2023-07-19T21:24:02.390Z,7.00
2023-07-19T21:26:33.900Z,9.40
2023-07-19T21:29:02.603Z,7.00
2023-07-19T21:31:31.812Z,6.20
2023-07-19T21:34:00.526Z,8.00
2023-07-19T21:36:30.886Z,5.40
2023-07-19T21:38:59.500Z,6.80
2023-07-19T21:41:28.402Z,6.00
2023-07-19T21:43:57.031Z,8.40
2023-07-19T21:46:26.127Z,7.00
2023-07-19T21:48:56.584Z,7.60
2023-07-19T21:51:25.667Z,7.40
2023-07-19T21:53:55.994Z,6.60
2023-07-19T21:56:26.367Z,10.60
2023-07-19T21:58:55.372Z,8.00
2023-07-19T22:01:24.366Z,8.40
2023-07-19T22:03:53.177Z,9.60
2023-07-19T22:06:22.300Z,9.20
2023-07-19T22:08:51.512Z,7.00
2023-07-19T22:11:21.936Z,7.40
2023-07-19T22:13:50.618Z,6.00
2023-07-19T22:16:19.874Z,8.80
2023-07-19T22:18:48.954Z,7.60
2023-07-19T22:21:22.268Z,7.00
2023-07-19T22:23:51.571Z,9.80
2023-07-19T22:26:22.409Z,5.60
2023-07-19T22:28:52.633Z,6.40
2023-07-19T22:31:21.858Z,6.20
2023-07-19T22:33:50.603Z,8.40
2023-07-19T22:36:19.739Z,10.60
2023-07-19T22:38:48.528Z,7.80
2023-07-19T22:41:17.622Z,6.20
2023-07-19T22:43:49.395Z,4.80
2023-07-19T22:46:20.054Z,6.40
2023-07-19T22:48:50.488Z,6.00
2023-07-19T22:51:19.783Z,8.60
2023-07-19T22:53:48.535Z,7.80
2023-07-19T22:56:17.452Z,6.60
2023-07-19T22:58:47.427Z,7.80
2023-07-19T23:01:16.420Z,7.80
2023-07-19T23:03:45.223Z,7.20
2023-07-19T23:06:14.242Z,7.40
2023-07-19T23:08:42.726Z,7.40
2023-07-19T23:11:11.604Z,6.40
2023-07-19T23:13:40.188Z,5.40
2023-07-19T23:16:10.365Z,6.60
2023-07-19T23:18:38.876Z,4.20
2023-07-19T23:21:07.804Z,5.00
2023-07-19T23:23:36.292Z,5.40
2023-07-19T23:26:05.211Z,4.00
2023-07-19T23:28:36.993Z,6.20
2023-07-19T23:31:08.367Z,5.60
2023-07-19T23:33:38.455Z,5.00
2023-07-19T23:36:09.149Z,6.60
2023-07-19T23:38:37.675Z,4.20
2023-07-19T23:41:06.543Z,5.80
2023-07-19T23:43:35.094Z,4.00
2023-07-19T23:46:04.201Z,3.40
2023-07-19T23:48:32.681Z,4.00
2023-07-19T23:51:04.376Z,6.00
2023-07-19T23:53:32.863Z,4.80
2023-07-19T23:56:01.637Z,4.80
2023-07-19T23:58:30.153Z,4.00
